createdAt,value
2018-03-07T00:00:22.335Z,134.70
2018-03-07T00:02:49.807Z,119.63
2018-03-07T00:05:17.273Z,127.53
2018-03-07T00:07:44.735Z,116.87
2018-03-07T00:10:12.205Z,115.73
2018-03-07T00:12:40.430Z,122.80
2018-03-07T00:15:07.910Z,122.37
2018-03-07T00:17:36.140Z,121.40
2018-03-07T00:20:03.612Z,109.40
2018-03-07T00:22:31.857Z,120.03
2018-03-07T00:24:59.350Z,121.00
2018-03-07T00:27:26.852Z,115.87
2018-03-07T00:29:54.326Z,117.83
2018-03-07T00:32:21.832Z,122.63
2018-03-07T00:34:49.320Z,113.60
2018-03-07T00:37:16.918Z,116.87
2018-03-07T00:39:44.397Z,125.43
2018-03-07T00:42:11.981Z,118.00
2018-03-07T00:44:39.589Z,130.27
2018-03-07T00:47:07.057Z,115.20
2018-03-07T00:49:34.638Z,116.53
2018-03-07T00:52:02.121Z,117.93
2018-03-07T00:54:29.640Z,128.63
2018-03-07T00:56:57.874Z,128.43
2018-03-07T00:59:25.392Z,121.67
2018-03-07T01:01:53.654Z,125.50
2018-03-07T01:04:21.134Z,117.30
2018-03-07T01:06:48.625Z,116.17
2018-03-07T01:09:16.109Z,121.97
2018-03-07T01:11:43.595Z,121.47
2018-03-07T01:14:11.104Z,119.33
2018-03-07T01:16:38.658Z,120.53
2018-03-07T01:19:06.135Z,116.10
2018-03-07T01:21:33.628Z,130.70
2018-03-07T01:24:01.134Z,142.17
2018-03-07T01:26:28.698Z,146.67
2018-03-07T01:28:56.166Z,137.47
2018-03-07T01:31:23.682Z,131.57
2018-03-07T01:33:51.188Z,142.57
2018-03-07T01:36:18.665Z,126.00
2018-03-07T01:38:46.137Z,124.33
2018-03-07T01:41:13.683Z,126.93
2018-03-07T01:43:41.959Z,135.40
2018-03-07T01:46:09.529Z,134.50
2018-03-07T01:48:37.016Z,142.20
2018-03-07T01:51:04.502Z,138.73
2018-03-07T01:53:31.976Z,125.17
2018-03-07T01:55:59.467Z,118.83
2018-03-07T01:58:27.001Z,130.83
2018-03-07T02:00:54.573Z,122.77
2018-03-07T02:03:22.040Z,125.63
2018-03-07T02:05:49.553Z,128.93
2018-03-07T02:08:17.062Z,134.07
2018-03-07T02:10:45.301Z,128.47
2018-03-07T02:13:12.764Z,131.30
2018-03-07T02:15:41.020Z,114.37
2018-03-07T02:18:08.490Z,121.23
2018-03-07T02:20:35.957Z,117.73
2018-03-07T02:23:03.436Z,107.60
2018-03-07T02:25:30.912Z,123.43
2018-03-07T02:27:58.377Z,125.40
2018-03-07T02:30:26.655Z,118.83
2018-03-07T02:32:54.122Z,114.47
2018-03-07T02:35:21.630Z,120.37
2018-03-07T02:37:49.156Z,122.23
2018-03-07T02:40:17.448Z,121.67
2018-03-07T02:42:45.743Z,123.53
2018-03-07T02:45:13.310Z,127.57
2018-03-07T02:47:40.883Z,127.53
2018-03-07T02:50:08.403Z,129.47
2018-03-07T02:52:35.989Z,136.23
2018-03-07T02:55:03.461Z,128.40
2018-03-07T02:57:30.972Z,125.63
2018-03-07T02:59:58.468Z,120.73
2018-03-07T03:02:25.944Z,122.20
2018-03-07T03:04:53.477Z,123.73
2018-03-07T03:07:21.731Z,141.13
2018-03-07T03:09:49.219Z,122.13
2018-03-07T03:12:16.920Z,120.90
2018-03-07T03:14:45.171Z,132.13
2018-03-07T03:17:12.644Z,129.07
2018-03-07T03:19:40.179Z,113.30
2018-03-07T03:22:07.672Z,129.30
2018-03-07T03:24:35.150Z,114.80
2018-03-07T03:27:03.439Z,123.27
2018-03-07T03:29:30.864Z,115.53
2018-03-07T03:31:58.392Z,121.97
2018-03-07T03:34:25.880Z,132.30
2018-03-07T03:36:53.372Z,128.27
2018-03-07T03:39:20.951Z,123.70
2018-03-07T03:41:48.441Z,127.40
2018-03-07T03:44:16.005Z,133.83
2018-03-07T03:46:43.482Z,122.23
2018-03-07T03:49:10.968Z,124.80
2018-03-07T03:51:38.459Z,117.27
2018-03-07T03:54:05.979Z,120.53
2018-03-07T03:56:33.463Z,132.57
2018-03-07T03:59:00.922Z,136.83
2018-03-07T04:01:28.401Z,128.03
2018-03-07T04:03:55.918Z,129.47
2018-03-07T04:06:23.405Z,130.27
2018-03-07T04:08:50.903Z,118.70
2018-03-07T04:11:18.366Z,127.37
2018-03-07T04:13:45.861Z,113.83
2018-03-07T04:16:13.334Z,126.90
2018-03-07T04:18:40.809Z,114.33
2018-03-07T04:21:08.347Z,103.30
2018-03-07T04:23:35.903Z,115.03
2018-03-07T04:26:03.397Z,120.33
2018-03-07T04:28:30.892Z,123.27
2018-03-07T04:30:58.373Z,120.47
2018-03-07T04:33:25.869Z,108.50
2018-03-07T04:35:54.843Z,115.20
2018-03-07T04:38:22.366Z,110.77
2018-03-07T04:40:49.846Z,120.30
2018-03-07T04:43:17.335Z,112.77
2018-03-07T04:45:44.798Z,99.27
2018-03-07T04:48:13.053Z,106.07
2018-03-07T04:50:40.517Z,102.70
2018-03-07T04:53:08.005Z,103.77
2018-03-07T04:55:35.528Z,108.83
2018-03-07T04:58:03.018Z,115.00
2018-03-07T05:00:30.480Z,111.10
2018-03-07T05:02:57.955Z,113.10
2018-03-07T05:05:25.429Z,106.40
2018-03-07T05:07:52.900Z,116.33
2018-03-07T05:10:21.153Z,122.03
2018-03-07T05:12:48.621Z,113.30
2018-03-07T05:15:16.082Z,112.87
2018-03-07T05:17:43.561Z,124.87
2018-03-07T05:20:11.788Z,112.87
2018-03-07T05:22:39.281Z,110.40
2018-03-07T05:25:06.753Z,108.97
2018-03-07T05:27:35.023Z,99.30
2018-03-07T05:30:02.541Z,110.50
2018-03-07T05:32:30.014Z,120.43
2018-03-07T05:34:57.497Z,107.77
2018-03-07T05:37:24.991Z,103.57
2018-03-07T05:39:52.457Z,93.20
2018-03-07T05:42:19.932Z,105.73
2018-03-07T05:44:47.432Z,102.60
2018-03-07T05:47:15.152Z,93.23
2018-03-07T05:49:42.632Z,85.17
2018-03-07T05:52:10.994Z,94.60
2018-03-07T05:54:38.515Z,92.70
2018-03-07T05:57:05.986Z,98.23
2018-03-07T05:59:33.457Z,85.37
2018-03-07T06:02:01.778Z,81.53
2018-03-07T06:04:30.043Z,97.70
2018-03-07T06:06:57.513Z,83.77
2018-03-07T06:09:25.076Z,88.17
2018-03-07T06:11:52.678Z,86.13
2018-03-07T06:14:20.947Z,74.90
2018-03-07T06:16:48.437Z,80.53
2018-03-07T06:19:15.904Z,73.57
2018-03-07T06:21:43.366Z,77.27
2018-03-07T06:24:10.942Z,70.00
2018-03-07T06:26:39.198Z,68.97
2018-03-07T06:29:06.675Z,72.47
2018-03-07T06:31:34.143Z,70.57
2018-03-07T06:34:01.608Z,73.33
2018-03-07T06:36:29.868Z,64.90
2018-03-07T06:38:57.330Z,62.17
2018-03-07T06:41:24.820Z,61.70
2018-03-07T06:43:52.277Z,57.60
2018-03-07T06:46:19.741Z,53.43
2018-03-07T06:48:47.238Z,50.23
2018-03-07T06:51:14.693Z,53.67
2018-03-07T06:53:42.245Z,48.77
2018-03-07T06:56:09.746Z,50.87
2018-03-07T06:58:37.213Z,50.07
2018-03-07T07:01:04.729Z,44.87
2018-03-07T07:03:32.199Z,46.90
2018-03-07T07:05:59.663Z,45.07
2018-03-07T07:08:27.227Z,43.73
2018-03-07T07:10:54.711Z,42.93
2018-03-07T07:13:22.183Z,38.93
2018-03-07T07:15:49.644Z,42.20
2018-03-07T07:18:17.111Z,38.37
2018-03-07T07:20:44.590Z,37.57
2018-03-07T07:23:12.092Z,39.20
2018-03-07T07:25:39.590Z,37.83
2018-03-07T07:28:07.056Z,38.50
2018-03-07T07:30:34.602Z,39.33
2018-03-07T07:33:02.070Z,39.97
2018-03-07T07:35:30.321Z,37.33
2018-03-07T07:37:57.800Z,39.27
2018-03-07T07:40:25.337Z,40.93
2018-03-07T07:42:52.804Z,41.00
2018-03-07T07:45:20.321Z,40.67
2018-03-07T07:47:47.818Z,37.10
2018-03-07T07:50:15.303Z,38.30
2018-03-07T07:52:42.768Z,35.83
2018-03-07T07:55:10.281Z,35.87
2018-03-07T07:57:37.842Z,30.50
2018-03-07T08:00:05.275Z,28.27
2018-03-07T08:02:32.746Z,22.83
2018-03-07T08:05:00.314Z,20.63
2018-03-07T08:07:28.542Z,20.60
2018-03-07T08:09:56.057Z,19.07
2018-03-07T08:12:23.514Z,18.57
2018-03-07T08:14:50.990Z,18.47
2018-03-07T08:17:18.462Z,19.03
2018-03-07T08:19:46.728Z,18.17
2018-03-07T08:22:14.222Z,18.23
2018-03-07T08:24:41.700Z,16.43
2018-03-07T08:27:09.176Z,15.63
2018-03-07T08:29:36.722Z,16.23
2018-03-07T08:32:04.197Z,15.63
2018-03-07T08:34:31.730Z,15.93
2018-03-07T08:36:59.292Z,16.33
2018-03-07T08:39:26.791Z,15.10
2018-03-07T08:41:54.246Z,15.63
2018-03-07T08:44:21.709Z,14.50
2018-03-07T08:46:49.213Z,15.23
2018-03-07T08:49:16.695Z,14.33
2018-03-07T08:51:44.170Z,14.13
2018-03-07T08:54:12.426Z,14.17
2018-03-07T08:56:39.910Z,13.20
2018-03-07T08:59:08.166Z,12.87
2018-03-07T09:01:35.645Z,12.17
2018-03-07T09:04:03.106Z,11.90
2018-03-07T09:06:30.711Z,11.70
2018-03-07T09:08:58.181Z,11.80
2018-03-07T09:11:26.450Z,11.10
2018-03-07T09:13:53.921Z,10.20
2018-03-07T09:16:22.159Z,10.70
2018-03-07T09:18:49.728Z,10.97
2018-03-07T09:21:17.278Z,10.47
2018-03-07T09:23:44.795Z,10.77
2018-03-07T09:26:12.265Z,9.00
2018-03-07T09:28:39.771Z,9.67
2018-03-07T09:31:07.263Z,10.40
2018-03-07T09:33:34.777Z,9.73
2018-03-07T09:36:03.016Z,10.20
2018-03-07T09:38:30.485Z,9.33
2018-03-07T09:40:57.950Z,9.40
2018-03-07T09:43:25.405Z,11.20
2018-03-07T09:45:52.880Z,10.70
2018-03-07T09:48:20.349Z,10.00
2018-03-07T09:50:47.826Z,10.53
2018-03-07T09:53:15.308Z,9.03
2018-03-07T09:55:42.795Z,9.67
2018-03-07T09:58:10.262Z,10.20
2018-03-07T10:00:38.517Z,10.53
2018-03-07T10:03:06.037Z,12.10
2018-03-07T10:05:33.592Z,13.13
2018-03-07T10:08:01.059Z,11.47
2018-03-07T10:10:28.589Z,12.33
2018-03-07T10:12:56.081Z,16.63
2018-03-07T10:15:23.545Z,11.80
2018-03-07T10:17:51.062Z,10.53
2018-03-07T10:20:19.150Z,11.77
2018-03-07T10:22:46.986Z,11.23
2018-03-07T10:25:15.222Z,12.13
2018-03-07T10:27:42.687Z,9.37
2018-03-07T10:30:10.171Z,10.23
2018-03-07T10:32:38.426Z,9.17
2018-03-07T10:35:06.663Z,10.57
2018-03-07T10:37:34.883Z,8.90
2018-03-07T10:40:02.431Z,9.90
2018-03-07T10:42:29.896Z,7.43
2018-03-07T10:44:57.345Z,7.43
2018-03-07T10:47:24.802Z,7.57
2018-03-07T10:49:52.259Z,6.40
2018-03-07T10:52:19.833Z,6.53
2018-03-07T10:54:47.749Z,6.60
2018-03-07T10:57:15.219Z,5.30
2018-03-07T10:59:42.678Z,5.00
2018-03-07T11:02:10.137Z,4.87
2018-03-07T11:04:37.758Z,4.87
2018-03-07T11:07:05.216Z,6.67
2018-03-07T11:09:32.692Z,5.13
2018-03-07T11:12:00.160Z,5.50
2018-03-07T11:14:27.654Z,5.97
2018-03-07T11:16:55.110Z,7.17
2018-03-07T11:19:23.404Z,6.43
2018-03-07T11:21:51.652Z,6.07
2018-03-07T11:24:19.173Z,8.33
2018-03-07T11:26:46.901Z,6.00
2018-03-07T11:29:14.536Z,6.07
2018-03-07T11:31:42.108Z,5.90
2018-03-07T11:34:09.616Z,5.47
2018-03-07T11:36:37.869Z,4.90
2018-03-07T11:39:05.392Z,5.17
2018-03-07T11:41:32.960Z,5.87
2018-03-07T11:44:00.492Z,5.00
2018-03-07T11:46:28.048Z,5.07
2018-03-07T11:48:56.267Z,4.77
2018-03-07T11:51:24.519Z,4.40
2018-03-07T11:53:52.036Z,5.00
2018-03-07T11:56:19.495Z,4.47
2018-03-07T11:58:47.774Z,4.30
2018-03-07T12:01:15.242Z,7.80
2018-03-07T12:03:43.528Z,4.57
2018-03-07T12:06:11.017Z,4.17
2018-03-07T12:08:38.496Z,5.20
2018-03-07T12:11:06.767Z,5.17
2018-03-07T12:13:34.261Z,5.47
2018-03-07T12:16:01.800Z,6.93
2018-03-07T12:18:29.323Z,4.63
2018-03-07T12:20:56.797Z,4.87
2018-03-07T12:23:24.256Z,5.17
2018-03-07T12:25:51.712Z,5.10
2018-03-07T12:28:19.959Z,6.43
2018-03-07T12:30:47.501Z,4.63
2018-03-07T12:33:14.951Z,5.10
2018-03-07T12:35:42.426Z,4.63
2018-03-07T12:38:10.073Z,4.97
2018-03-07T12:40:39.045Z,4.30
2018-03-07T12:43:06.665Z,5.33
2018-03-07T12:45:35.617Z,4.10
2018-03-07T12:48:03.091Z,4.30
2018-03-07T12:50:33.483Z,4.40
2018-03-07T12:53:00.952Z,5.53
2018-03-07T12:55:28.412Z,4.13
2018-03-07T12:57:55.939Z,4.80
2018-03-07T13:00:23.446Z,5.10
2018-03-07T13:02:50.930Z,3.67
2018-03-07T13:05:18.926Z,3.40
2018-03-07T13:07:46.388Z,3.10
2018-03-07T13:10:14.672Z,3.27
2018-03-07T13:12:42.140Z,2.63
2018-03-07T13:15:09.615Z,2.20
2018-03-07T13:17:37.087Z,2.17
2018-03-07T13:20:04.542Z,2.10
2018-03-07T13:22:32.816Z,2.07
2018-03-07T13:25:00.294Z,1.80
2018-03-07T13:27:27.779Z,1.93
2018-03-07T13:29:55.241Z,1.53
2018-03-07T13:32:22.708Z,1.60
2018-03-07T13:34:50.205Z,1.00
2018-03-07T13:37:17.682Z,1.97
2018-03-07T13:39:45.172Z,1.93
2018-03-07T13:42:12.651Z,5.40
2018-03-07T13:44:40.134Z,1.40
2018-03-07T13:47:07.597Z,1.90
2018-03-07T13:49:35.107Z,4.10
2018-03-07T13:52:02.593Z,1.47
2018-03-07T13:54:30.084Z,2.50
2018-03-07T13:56:57.545Z,2.80
2018-03-07T13:59:25.021Z,1.00
2018-03-07T14:01:52.484Z,1.90
2018-03-07T14:04:20.734Z,2.57
2018-03-07T14:06:48.953Z,2.13
2018-03-07T14:09:16.418Z,2.03
2018-03-07T14:11:43.873Z,1.00
2018-03-07T14:14:11.361Z,1.50
2018-03-07T14:16:39.582Z,1.77
2018-03-07T14:19:07.767Z,1.10
2018-03-07T14:21:35.997Z,2.43
2018-03-07T14:24:03.470Z,1.47
2018-03-07T14:26:31.739Z,1.40
2018-03-07T14:28:59.222Z,2.03
2018-03-07T14:31:26.697Z,2.00
2018-03-07T14:33:54.166Z,13.90
2018-03-07T14:36:21.662Z,5.47
2018-03-07T14:38:49.130Z,1.80
2018-03-07T14:41:16.589Z,2.67
2018-03-07T14:43:44.154Z,2.13
2018-03-07T14:46:11.621Z,1.70
2018-03-07T14:48:39.078Z,1.87
2018-03-07T14:51:07.309Z,1.40
2018-03-07T14:53:34.841Z,2.90
2018-03-07T14:56:02.313Z,2.50
2018-03-07T14:58:29.781Z,2.57
2018-03-07T15:00:57.241Z,1.80
2018-03-07T15:03:24.692Z,2.10
2018-03-07T15:05:52.151Z,3.90
2018-03-07T15:08:19.639Z,1.90
2018-03-07T15:10:47.105Z,2.80
2018-03-07T15:13:14.641Z,2.00
2018-03-07T15:15:42.776Z,3.23
2018-03-07T15:18:11.031Z,2.07
2018-03-07T15:20:38.549Z,1.97
2018-03-07T15:23:06.036Z,1.90
2018-03-07T15:25:33.496Z,1.60
2018-03-07T15:28:01.009Z,1.80
2018-03-07T15:30:28.607Z,2.83
2018-03-07T15:32:56.094Z,2.00
2018-03-07T15:35:23.568Z,1.87
2018-03-07T15:37:51.044Z,2.80
2018-03-07T15:40:19.206Z,1.70
2018-03-07T15:42:46.669Z,4.27
2018-03-07T15:45:14.182Z,2.93
2018-03-07T15:47:41.642Z,4.10
2018-03-07T15:50:09.937Z,2.10
2018-03-07T15:52:37.432Z,3.53
2018-03-07T15:55:05.742Z,2.73
2018-03-07T15:57:33.207Z,2.03
2018-03-07T16:00:01.171Z,2.43
2018-03-07T16:02:28.632Z,3.27
2018-03-07T16:04:56.089Z,3.50
2018-03-07T16:07:24.522Z,2.40
2018-03-07T16:09:52.048Z,2.10
2018-03-07T16:12:19.623Z,1.80
2018-03-07T16:14:47.155Z,2.27
2018-03-07T16:17:14.612Z,2.67
2018-03-07T16:19:42.840Z,2.90
2018-03-07T16:22:10.394Z,3.90
2018-03-07T16:24:37.899Z,4.20
2018-03-07T16:27:05.369Z,3.90
2018-03-07T16:29:32.900Z,3.33
2018-03-07T16:32:00.364Z,2.43
2018-03-07T16:34:27.867Z,3.20
2018-03-07T16:36:55.325Z,1.87
2018-03-07T16:39:23.099Z,2.87
2018-03-07T16:41:51.434Z,2.53
2018-03-07T16:44:18.893Z,1.73
2018-03-07T16:46:46.401Z,4.87
2018-03-07T16:49:13.858Z,4.20
2018-03-07T16:51:41.516Z,2.13
2018-03-07T16:54:09.090Z,2.00
2018-03-07T16:56:37.336Z,2.70
2018-03-07T16:59:05.001Z,2.70
2018-03-07T17:01:33.326Z,3.17
2018-03-07T17:04:01.554Z,3.53
2018-03-07T17:06:29.881Z,4.30
2018-03-07T17:08:57.373Z,2.33
2018-03-07T17:11:24.872Z,2.27
2018-03-07T17:13:52.439Z,3.07
2018-03-07T17:16:19.930Z,2.40
2018-03-07T17:18:47.621Z,1.97
2018-03-07T17:21:15.104Z,2.20
2018-03-07T17:25:23.045Z,1.77
2018-03-07T17:27:50.511Z,4.23
2018-03-07T17:30:18.900Z,1.63
2018-03-07T17:32:47.680Z,2.27
2018-03-07T17:35:15.158Z,2.80
2018-03-07T17:37:42.649Z,2.70
2018-03-07T17:40:10.182Z,3.23
2018-03-07T17:42:38.438Z,2.70
2018-03-07T17:45:05.900Z,3.43
2018-03-07T17:47:33.364Z,2.60
2018-03-07T17:50:00.890Z,3.27
2018-03-07T17:52:28.390Z,3.87
2018-03-07T17:54:56.849Z,3.70
2018-03-07T17:57:24.316Z,3.47
2018-03-07T17:59:52.560Z,3.33
2018-03-07T18:02:20.034Z,4.60
2018-03-07T18:04:47.521Z,5.70
2018-03-07T18:07:15.071Z,7.50
2018-03-07T18:09:42.630Z,7.93
2018-03-07T18:12:10.203Z,7.30
2018-03-07T18:14:37.728Z,3.37
2018-03-07T18:17:05.319Z,2.90
2018-03-07T18:19:32.780Z,3.77
2018-03-07T18:22:00.234Z,2.93
2018-03-07T18:24:28.461Z,2.77
2018-03-07T18:26:56.773Z,2.40
2018-03-07T18:29:24.342Z,2.80
2018-03-07T18:31:52.591Z,2.03
2018-03-07T18:34:20.111Z,2.30
2018-03-07T18:36:47.631Z,1.93
2018-03-07T18:39:15.112Z,2.33
2018-03-07T18:41:42.593Z,3.53
2018-03-07T18:44:10.123Z,1.67
2018-03-07T18:46:38.381Z,2.43
2018-03-07T18:49:05.932Z,2.97
2018-03-07T18:51:34.194Z,3.00
2018-03-07T18:54:01.672Z,2.00
2018-03-07T18:56:29.140Z,4.30
2018-03-07T18:58:56.604Z,2.50
2018-03-07T19:01:24.181Z,2.80
2018-03-07T19:03:51.657Z,2.03
2018-03-07T19:06:19.143Z,4.33
2018-03-07T19:08:47.864Z,1.83
2018-03-07T19:11:15.330Z,3.83
2018-03-07T19:13:42.862Z,2.70
2018-03-07T19:16:10.405Z,1.93
2018-03-07T19:18:37.949Z,2.73
2018-03-07T19:21:06.182Z,1.40
2018-03-07T19:23:33.645Z,1.73
2018-03-07T19:26:01.123Z,1.73
2018-03-07T19:28:28.781Z,2.63
2018-03-07T19:30:56.267Z,4.83
2018-03-07T19:33:23.770Z,4.33
2018-03-07T19:35:51.260Z,3.10
2018-03-07T19:38:18.776Z,2.10
2018-03-07T19:40:47.750Z,2.10
2018-03-07T19:43:15.217Z,1.53
2018-03-07T19:45:42.744Z,1.20
2018-03-07T19:48:10.238Z,1.93
2018-03-07T19:50:37.713Z,3.33
2018-03-07T19:53:05.703Z,2.50
2018-03-07T19:55:33.167Z,3.27
2018-03-07T19:58:00.629Z,1.00
2018-03-07T20:00:28.876Z,1.53
2018-03-07T20:02:56.335Z,1.57
2018-03-07T20:05:23.864Z,2.97
2018-03-07T20:07:51.467Z,2.93
2018-03-07T20:10:19.100Z,0.83
2018-03-07T20:12:46.686Z,1.93
2018-03-07T20:15:14.251Z,1.33
2018-03-07T20:17:41.804Z,1.27
2018-03-07T20:20:09.384Z,1.60
2018-03-07T20:22:37.643Z,2.10
2018-03-07T20:25:05.103Z,2.40
2018-03-07T20:27:32.576Z,2.37
2018-03-07T20:30:00.048Z,1.70
2018-03-07T20:32:27.507Z,1.47
2018-03-07T20:34:54.969Z,3.37
2018-03-07T20:37:23.241Z,2.90
2018-03-07T20:39:50.739Z,1.40
2018-03-07T20:42:18.224Z,1.63
2018-03-07T20:44:45.761Z,1.53
2018-03-07T20:47:13.989Z,1.77
2018-03-07T20:49:42.640Z,1.47
2018-03-07T20:52:10.237Z,1.40
2018-03-07T20:54:37.735Z,1.37
2018-03-07T20:57:05.213Z,1.70
2018-03-07T20:59:32.699Z,1.23
2018-03-07T21:02:00.157Z,1.73
2018-03-07T21:04:27.680Z,0.90
2018-03-07T21:06:55.096Z,1.60
2018-03-07T21:09:22.546Z,1.73
2018-03-07T21:11:50.018Z,1.77
2018-03-07T21:14:17.497Z,2.33
2018-03-07T21:16:44.967Z,3.90
2018-03-07T21:19:12.436Z,2.77
2018-03-07T21:21:39.910Z,1.60
2018-03-07T21:24:07.464Z,3.10
2018-03-07T21:26:34.935Z,1.83
2018-03-07T21:29:02.408Z,1.60
2018-03-07T21:31:29.931Z,2.67
2018-03-07T21:33:57.398Z,3.23
2018-03-07T21:36:24.863Z,1.40
2018-03-07T21:38:53.091Z,1.90
2018-03-07T21:41:20.582Z,1.97
2018-03-07T21:43:48.109Z,2.43
2018-03-07T21:46:16.363Z,2.70
2018-03-07T21:48:43.864Z,2.67
2018-03-07T21:51:11.327Z,2.20
2018-03-07T21:53:38.803Z,3.67
2018-03-07T21:56:06.284Z,3.93
2018-03-07T21:58:33.745Z,2.23
2018-03-07T22:01:01.326Z,4.00
2018-03-07T22:03:29.576Z,2.90
2018-03-07T22:05:57.026Z,3.40
2018-03-07T22:08:25.305Z,3.33
2018-03-07T22:10:53.632Z,3.67
2018-03-07T22:13:21.102Z,3.93
2018-03-07T22:15:48.600Z,4.67
2018-03-07T22:18:17.121Z,3.57
2018-03-07T22:20:45.341Z,3.93
2018-03-07T22:23:12.831Z,3.57
2018-03-07T22:25:40.289Z,5.07
2018-03-07T22:28:08.535Z,4.80
2018-03-07T22:30:36.063Z,4.17
2018-03-07T22:33:03.614Z,3.83
2018-03-07T22:35:31.107Z,5.30
2018-03-07T22:37:58.588Z,4.23
2018-03-07T22:40:26.070Z,4.50
2018-03-07T22:42:53.534Z,4.97
2018-03-07T22:45:21.011Z,5.37
2018-03-07T22:47:48.461Z,4.93
2018-03-07T22:50:16.718Z,4.20
2018-03-07T22:52:44.208Z,4.27
2018-03-07T22:55:11.692Z,4.30
2018-03-07T22:57:39.155Z,4.37
2018-03-07T23:00:12.305Z,7.10
2018-03-07T23:02:39.757Z,5.10
2018-03-07T23:05:07.219Z,4.60
2018-03-07T23:07:35.442Z,5.03
2018-03-07T23:10:02.911Z,6.47
2018-03-07T23:12:30.367Z,5.93
2018-03-07T23:14:58.660Z,6.23
2018-03-07T23:17:26.215Z,6.10
2018-03-07T23:19:53.666Z,6.40
2018-03-07T23:22:21.118Z,6.10
2018-03-07T23:24:48.587Z,6.00
2018-03-07T23:27:16.042Z,6.00
2018-03-07T23:29:44.293Z,6.60
2018-03-07T23:32:11.757Z,5.83
2018-03-07T23:34:39.249Z,5.97
2018-03-07T23:37:06.705Z,7.83
2018-03-07T23:39:34.223Z,6.47
2018-03-07T23:42:01.685Z,6.63
2018-03-07T23:44:29.152Z,6.90
2018-03-07T23:46:56.729Z,10.93
2018-03-07T23:49:24.204Z,7.47
2018-03-07T23:51:52.430Z,7.07
2018-03-07T23:54:19.926Z,6.43
2018-03-07T23:56:47.480Z,7.40
2018-03-07T23:59:15.051Z,7.87
